createdAt,value
2023-01-01T00:01:45.552Z,100140.72
2023-01-01T00:04:17.581Z,100142.38
2023-01-01T00:06:49.513Z,100120.28
2023-01-01T00:09:42.854Z,100166.91
2023-01-01T00:12:14.857Z,100148.22
2023-01-01T00:14:46.719Z,100149.06
2023-01-01T00:17:18.596Z,100163.97
2023-01-01T00:19:50.554Z,100146.97
2023-01-01T00:25:14.901Z,100157.97
2023-01-01T00:27:46.877Z,100136.09
2023-01-01T00:30:19.208Z,100154.06
2023-01-01T00:32:54.759Z,100146.03
2023-01-01T00:35:28.259Z,100128.91
2023-01-01T00:38:00.206Z,100157.63
2023-01-01T00:40:32.220Z,100145.44
2023-01-01T00:43:04.161Z,100129.75
2023-01-01T00:45:36.260Z,100148.06
2023-01-01T00:48:08.262Z,100149.22
2023-01-01T00:50:40.085Z,100150.91
2023-01-01T00:53:11.992Z,100104.53
2023-01-01T00:55:46.893Z,100157.16
2023-01-01T00:58:20.013Z,100154.56
2023-01-01T01:00:53.198Z,100157.38
2023-01-01T01:03:28.566Z,100160.97
2023-01-01T01:06:03.490Z,100173.25
2023-01-01T01:08:36.654Z,100157.38
2023-01-01T01:11:14.337Z,100131.50
2023-01-01T01:13:49.324Z,100159.28
2023-01-01T01:16:28.639Z,100162.59
2023-01-01T01:19:03.427Z,100160.34
2023-01-01T01:21:35.679Z,100144.88
2023-01-01T01:24:07.885Z,100128.34
2023-01-01T01:26:39.836Z,100159.78
2023-01-01T01:29:11.846Z,100140.75
2023-01-01T01:31:43.712Z,100162.97
2023-01-01T01:34:21.176Z,100145.94
2023-01-01T01:36:56.603Z,100158.94
2023-01-01T01:39:28.590Z,100151.03
2023-01-01T01:42:02.717Z,100118.63
2023-01-01T01:44:49.524Z,100166.03
2023-01-01T01:47:24.553Z,100143.81
2023-01-01T01:50:04.214Z,100162.97
2023-01-01T01:52:40.171Z,100152.88
2023-01-01T01:55:13.916Z,100162.22
2023-01-01T01:57:46.014Z,100167.09
2023-01-01T02:00:17.995Z,100151.84
2023-01-01T02:03:03.195Z,100158.56
2023-01-01T02:05:36.394Z,100160.34
2023-01-01T02:08:09.305Z,100158.81
2023-01-01T02:10:41.256Z,100140.59
2023-01-01T02:13:14.326Z,100143.81
2023-01-01T02:15:53.599Z,100160.81
2023-01-01T02:18:37.870Z,100147.09
2023-01-01T02:21:17.463Z,100142.28
2023-01-01T02:24:14.123Z,100151.72
2023-01-01T02:27:38.502Z,100149.69
2023-01-01T02:30:12.204Z,100155.94
2023-01-01T02:32:50.600Z,100152.66
2023-01-01T02:35:38.858Z,100171.94
2023-01-01T02:38:25.781Z,100170.16
2023-01-01T02:41:02.133Z,100150.88
2023-01-01T02:43:34.070Z,100147.69
2023-01-01T02:46:08.576Z,100147.09
2023-01-01T02:48:42.489Z,100165.09
2023-01-01T02:51:14.440Z,100160.00
2023-01-01T02:54:06.568Z,100159.16
2023-01-01T02:56:42.594Z,100158.13
2023-01-01T02:59:51.300Z,100161.53
2023-01-01T03:02:56.942Z,100159.91
2023-01-01T03:05:33.255Z,100153.25
2023-01-01T03:08:17.507Z,100131.88
2023-01-01T03:10:49.306Z,100160.59
2023-01-01T03:13:51.741Z,100134.69
2023-01-01T03:16:26.622Z,100160.94
2023-01-01T03:19:12.070Z,100151.72
2023-01-01T03:21:47.041Z,100160.25
2023-01-01T03:24:32.787Z,100167.34
2023-01-01T03:27:37.699Z,100158.59
2023-01-01T03:30:13.501Z,100136.84
2023-01-01T03:33:00.563Z,100143.13
2023-01-01T03:35:58.353Z,100160.00
2023-01-01T03:38:39.425Z,100161.28
2023-01-01T03:41:15.127Z,100153.75
2023-01-01T03:44:04.925Z,100165.22
2023-01-01T03:46:38.350Z,100163.31
2023-01-01T03:49:13.396Z,100156.47
2023-01-01T03:51:59.455Z,100167.69
2023-01-01T03:54:37.799Z,100179.84
2023-01-01T03:57:21.028Z,100168.75
2023-01-01T04:00:02.694Z,100182.44
2023-01-01T04:02:43.164Z,100157.03
2023-01-01T04:05:17.325Z,100168.50
2023-01-01T04:10:22.800Z,100154.09
2023-01-01T04:12:57.476Z,100183.28
2023-01-01T04:15:29.525Z,100176.91
2023-01-01T04:18:01.745Z,100168.63
2023-01-01T04:20:33.634Z,100171.69
2023-01-01T04:23:05.648Z,100172.75
2023-01-01T04:25:37.606Z,100189.31
2023-01-01T04:28:09.581Z,100175.00
2023-01-01T04:33:12.018Z,100192.84
2023-01-01T04:35:43.900Z,100189.28
2023-01-01T04:38:15.757Z,100184.22
2023-01-01T04:40:58.444Z,100203.34
2023-01-01T04:43:31.868Z,100201.09
2023-01-01T04:46:04.803Z,100214.56
2023-01-01T04:48:36.752Z,100206.41
2023-01-01T04:51:11.055Z,100217.91
2023-01-01T04:53:43.154Z,100217.22
2023-01-01T04:56:18.848Z,100215.69
2023-01-01T04:58:50.935Z,100210.25
2023-01-01T05:01:26.176Z,100215.38
2023-01-01T05:03:59.532Z,100215.38
2023-01-01T05:06:31.448Z,100224.94
2023-01-01T05:09:04.357Z,100222.75
2023-01-01T05:11:36.939Z,100215.28
2023-01-01T05:14:08.854Z,100196.59
2023-01-01T05:16:41.573Z,100220.25
2023-01-01T05:19:14.343Z,100209.44
2023-01-01T05:21:46.782Z,100208.63
2023-01-01T05:24:18.681Z,100222.59
2023-01-01T05:26:50.549Z,100227.69
2023-01-01T05:29:24.507Z,100201.03
2023-01-01T05:31:56.491Z,100200.91
2023-01-01T05:36:59.944Z,100198.66
2023-01-01T05:39:31.931Z,100224.53
2023-01-01T05:42:03.939Z,100229.06
2023-01-01T05:44:35.980Z,100174.69
2023-01-01T05:47:07.901Z,100233.81
2023-01-01T05:49:39.999Z,100206.59
2023-01-01T05:52:11.827Z,100201.19
2023-01-01T05:54:43.755Z,100237.50
2023-01-01T05:57:16.256Z,100240.78
2023-01-01T05:59:48.596Z,100225.66
2023-01-01T06:02:20.750Z,100222.03
2023-01-01T06:04:52.850Z,100240.72
2023-01-01T06:07:24.883Z,100244.44
2023-01-01T06:09:56.901Z,100239.72
2023-01-01T06:12:29.209Z,100227.44
2023-01-01T06:15:01.208Z,100249.19
2023-01-01T06:17:34.672Z,100247.47
2023-01-01T06:20:07.144Z,100251.22
2023-01-01T06:22:39.122Z,100247.09
2023-01-01T06:25:12.268Z,100250.13
2023-01-01T06:27:44.128Z,100258.53
2023-01-01T06:30:15.977Z,100259.75
2023-01-01T06:32:47.852Z,100263.28
2023-01-01T06:35:19.718Z,100262.84
2023-01-01T06:37:51.572Z,100266.38
2023-01-01T06:40:23.464Z,100280.31
2023-01-01T06:42:55.432Z,100272.44
2023-01-01T06:45:27.303Z,100280.59
2023-01-01T06:47:59.164Z,100272.44
2023-01-01T06:50:31.073Z,100260.25
2023-01-01T06:53:02.921Z,100266.19
2023-01-01T06:55:35.912Z,100274.66
2023-01-01T06:58:10.083Z,100263.78
2023-01-01T07:00:41.955Z,100284.84
2023-01-01T07:03:13.840Z,100277.59
2023-01-01T07:05:45.846Z,100282.88
2023-01-01T07:08:17.764Z,100288.81
2023-01-01T07:10:49.593Z,100281.13
2023-01-01T07:13:21.455Z,100301.56
2023-01-01T07:15:54.053Z,100305.97
2023-01-01T07:18:26.385Z,100299.66
2023-01-01T07:21:00.506Z,100296.34
2023-01-01T07:23:35.202Z,100290.81
2023-01-01T07:26:07.087Z,100298.75
2023-01-01T07:28:42.609Z,100309.94
2023-01-01T07:31:14.516Z,100284.47
2023-01-01T07:33:46.410Z,100300.44
2023-01-01T07:36:20.436Z,100306.69
2023-01-01T07:38:52.277Z,100300.78
2023-01-01T07:41:24.494Z,100284.22
2023-01-01T07:43:56.429Z,100302.88
2023-01-01T07:46:29.270Z,100322.97
2023-01-01T07:49:01.177Z,100286.63
2023-01-01T07:51:33.124Z,100330.34
2023-01-01T07:54:07.343Z,100317.44
2023-01-01T07:56:39.629Z,100334.31
2023-01-01T07:59:14.402Z,100326.97
2023-01-01T08:01:49.036Z,100305.00
2023-01-01T08:04:21.102Z,100353.09
2023-01-01T08:06:54.051Z,100354.75
2023-01-01T08:09:25.968Z,100333.53
2023-01-01T08:11:59.027Z,100347.25
2023-01-01T08:14:30.945Z,100335.34
2023-01-01T08:17:02.987Z,100343.47
2023-01-01T08:19:34.942Z,100343.69
2023-01-01T08:22:06.979Z,100356.38
2023-01-01T08:24:38.941Z,100340.41
2023-01-01T08:27:14.683Z,100355.72
2023-01-01T08:29:46.768Z,100338.53
2023-01-01T08:32:18.642Z,100337.44
2023-01-01T08:34:50.532Z,100353.47
2023-01-01T08:37:23.006Z,100345.72
2023-01-01T08:39:54.960Z,100346.16
2023-01-01T08:42:26.883Z,100370.81
2023-01-01T08:44:58.740Z,100353.84
2023-01-01T08:47:30.636Z,100332.56
2023-01-01T08:50:02.522Z,100366.88
2023-01-01T08:52:34.480Z,100378.38
2023-01-01T08:55:06.758Z,100360.31
2023-01-01T08:57:38.635Z,100371.22
2023-01-01T09:00:11.292Z,100368.22
2023-01-01T09:02:43.498Z,100371.69
2023-01-01T09:05:15.689Z,100389.16
2023-01-01T09:07:47.643Z,100342.84
2023-01-01T09:10:19.683Z,100390.69
2023-01-01T09:12:51.537Z,100389.31
2023-01-01T09:15:23.485Z,100401.13
2023-01-01T09:17:55.483Z,100373.09
2023-01-01T09:20:27.443Z,100398.69
2023-01-01T09:23:05.505Z,100380.91
2023-01-01T09:25:38.448Z,100414.19
2023-01-01T09:28:14.456Z,100407.44
2023-01-01T09:30:46.304Z,100414.03
2023-01-01T09:33:21.337Z,100403.72
2023-01-01T09:35:53.218Z,100389.25
2023-01-01T09:38:25.084Z,100394.63
2023-01-01T09:41:08.951Z,100394.91
2023-01-01T09:44:28.952Z,100421.50
2023-01-01T09:47:03.002Z,100422.03
2023-01-01T09:49:39.986Z,100416.78
2023-01-01T09:52:14.983Z,100415.41
2023-01-01T09:55:18.991Z,100408.81
2023-01-01T09:57:50.973Z,100419.41
2023-01-01T10:00:23.166Z,100378.50
2023-01-01T10:03:19.789Z,100420.25
2023-01-01T10:06:24.227Z,100406.31
2023-01-01T10:09:17.089Z,100418.97
2023-01-01T10:12:07.812Z,100411.53
2023-01-01T10:14:44.005Z,100398.19
2023-01-01T10:17:36.912Z,100413.59
2023-01-01T10:20:25.787Z,100388.41
2023-01-01T10:23:10.750Z,100390.63
2023-01-01T10:25:43.531Z,100397.19
2023-01-01T10:28:18.331Z,100411.94
2023-01-01T10:30:53.463Z,100413.84
2023-01-01T10:33:25.703Z,100376.03
2023-01-01T10:35:57.849Z,100395.69
2023-01-01T10:38:29.860Z,100386.88
2023-01-01T10:41:13.656Z,100394.41
2023-01-01T10:43:50.239Z,100396.63
2023-01-01T10:46:31.830Z,100388.91
2023-01-01T10:49:12.971Z,100395.81
2023-01-01T10:51:48.563Z,100387.00
2023-01-01T10:54:40.577Z,100396.63
2023-01-01T10:57:21.066Z,100382.06
2023-01-01T10:59:54.553Z,100398.19
2023-01-01T11:02:28.608Z,100387.28
2023-01-01T11:05:22.302Z,100392.91
2023-01-01T11:07:54.529Z,100374.97
2023-01-01T11:10:26.540Z,100365.34
2023-01-01T11:13:06.464Z,100341.25
2023-01-01T11:15:41.559Z,100377.88
2023-01-01T11:18:22.984Z,100364.38
2023-01-01T11:20:56.645Z,100346.16
2023-01-01T11:23:35.135Z,100342.44
2023-01-01T11:26:16.229Z,100377.69
2023-01-01T11:29:17.394Z,100389.03
2023-01-01T11:31:49.828Z,100359.72
2023-01-01T11:34:32.010Z,100383.69
2023-01-01T11:37:36.302Z,100374.28
2023-01-01T11:40:19.095Z,100376.50
2023-01-01T11:42:58.346Z,100363.00
2023-01-01T11:45:39.407Z,100360.22
2023-01-01T11:48:33.441Z,100374.25
2023-01-01T11:51:08.381Z,100353.13
2023-01-01T11:53:42.194Z,100373.69
2023-01-01T11:56:21.349Z,100372.84
2023-01-01T11:59:00.434Z,100337.09
2023-01-01T12:01:52.728Z,100361.88
2023-01-01T12:04:31.851Z,100374.84
2023-01-01T12:07:08.279Z,100370.06
2023-01-01T12:10:21.953Z,100371.31
2023-01-01T12:13:06.566Z,100357.25
2023-01-01T12:15:47.090Z,100352.00
2023-01-01T12:18:27.838Z,100350.06
2023-01-01T12:21:05.642Z,100357.66
2023-01-01T12:23:37.546Z,100354.22
2023-01-01T12:26:09.321Z,100359.47
2023-01-01T12:29:01.059Z,100367.19
2023-01-01T12:31:52.055Z,100359.91
2023-01-01T12:34:55.016Z,100356.06
2023-01-01T12:38:04.999Z,100357.00
2023-01-01T12:41:02.019Z,100365.00
2023-01-01T12:43:48.351Z,100335.00
2023-01-01T12:46:38.073Z,100344.50
2023-01-01T12:49:43.728Z,100359.22
2023-01-01T12:52:48.096Z,100362.13
2023-01-01T12:55:44.860Z,100373.00
2023-01-01T12:58:20.417Z,100372.19
2023-01-01T13:01:01.369Z,100359.50
2023-01-01T13:04:00.313Z,100385.97
2023-01-01T13:06:38.095Z,100405.81
2023-01-01T13:09:25.419Z,100398.50
2023-01-01T13:12:01.879Z,100396.53
2023-01-01T13:14:45.363Z,100371.06
2023-01-01T13:17:29.062Z,100411.44
2023-01-01T13:20:23.167Z,100434.97
2023-01-01T13:22:55.090Z,100430.97
2023-01-01T13:25:26.979Z,100387.13
2023-01-01T13:28:03.689Z,100434.00
2023-01-01T13:30:38.603Z,100433.44
2023-01-01T13:33:37.072Z,100409.50
2023-01-01T13:36:09.198Z,100430.28
2023-01-01T13:38:53.787Z,100421.75
2023-01-01T13:41:25.800Z,100422.44
2023-01-01T13:44:00.656Z,100424.19
2023-01-01T13:46:41.621Z,100423.31
2023-01-01T13:49:35.132Z,100419.34
2023-01-01T13:52:40.968Z,100422.75
2023-01-01T13:55:49.645Z,100426.72
2023-01-01T13:58:39.760Z,100427.38
2023-01-01T14:01:49.321Z,100429.84
2023-01-01T14:04:34.919Z,100414.75
2023-01-01T14:07:53.476Z,100437.72
2023-01-01T14:10:28.832Z,100431.38
2023-01-01T14:13:06.725Z,100447.56
2023-01-01T14:15:54.123Z,100441.16
2023-01-01T14:18:34.196Z,100453.00
2023-01-01T14:21:27.693Z,100462.06
2023-01-01T14:24:05.496Z,100467.06
2023-01-01T14:26:39.532Z,100466.75
2023-01-01T14:29:26.690Z,100417.31
2023-01-01T14:32:02.736Z,100473.84
2023-01-01T14:34:37.709Z,100474.59
2023-01-01T14:37:24.035Z,100497.38
2023-01-01T14:40:16.595Z,100508.19
2023-01-01T14:42:50.705Z,100512.38
2023-01-01T14:45:23.797Z,100469.44
2023-01-01T14:47:57.612Z,100513.00
2023-01-01T14:50:32.152Z,100522.03
2023-01-01T14:53:07.668Z,100509.22
2023-01-01T14:55:45.869Z,100518.38
2023-01-01T14:58:21.234Z,100527.72
2023-01-01T15:00:53.400Z,100520.50
2023-01-01T15:03:25.672Z,100533.88
2023-01-01T15:05:59.996Z,100528.94
2023-01-01T15:08:31.891Z,100536.00
2023-01-01T15:11:04.854Z,100532.38
2023-01-01T15:13:36.773Z,100556.28
2023-01-01T15:16:18.498Z,100502.84
2023-01-01T15:18:53.361Z,100558.88
2023-01-01T15:21:31.158Z,100571.66
2023-01-01T15:24:14.671Z,100568.56
2023-01-01T15:26:55.263Z,100541.78
2023-01-01T15:29:33.579Z,100512.44
2023-01-01T15:32:08.785Z,100470.94
2023-01-01T15:34:52.590Z,100499.66
2023-01-01T15:37:47.282Z,100500.34
2023-01-01T15:40:19.146Z,100500.81
2023-01-01T15:42:57.031Z,100510.28
2023-01-01T15:45:31.563Z,100510.66
2023-01-01T15:48:06.496Z,100511.72
2023-01-01T15:50:44.512Z,100517.81
2023-01-01T15:53:22.250Z,100514.25
2023-01-01T15:56:00.901Z,100506.53
2023-01-01T15:58:37.715Z,100537.44
2023-01-01T16:01:14.365Z,100534.97
2023-01-01T16:03:48.581Z,100519.19
2023-01-01T16:06:22.115Z,100536.00
2023-01-01T16:08:54.548Z,100537.78
2023-01-01T16:11:26.818Z,100548.19
2023-01-01T16:13:58.741Z,100539.06
2023-01-01T16:16:31.549Z,100555.91
2023-01-01T16:19:03.560Z,100537.03
2023-01-01T16:21:35.489Z,100548.50
2023-01-01T16:24:13.671Z,100569.50
2023-01-01T16:26:46.757Z,100572.75
2023-01-01T16:29:18.717Z,100563.75
2023-01-01T16:31:51.453Z,100590.41
2023-01-01T16:34:24.485Z,100588.38
2023-01-01T16:36:56.392Z,100592.25
2023-01-01T16:39:28.360Z,100600.56
2023-01-01T16:42:00.719Z,100598.78
2023-01-01T16:44:32.679Z,100563.63
2023-01-01T16:47:04.647Z,100597.09
2023-01-01T16:49:36.775Z,100602.16
2023-01-01T16:52:08.940Z,100600.06
2023-01-01T16:54:40.976Z,100603.41
2023-01-01T16:57:12.979Z,100625.72
2023-01-01T16:59:44.825Z,100614.56
2023-01-01T17:02:16.803Z,100627.97
2023-01-01T17:04:48.764Z,100625.38
2023-01-01T17:07:20.741Z,100627.16
2023-01-01T17:09:52.605Z,100647.94
2023-01-01T17:12:24.461Z,100626.47
2023-01-01T17:14:56.330Z,100646.06
2023-01-01T17:17:28.244Z,100614.34
2023-01-01T17:20:00.337Z,100624.31
2023-01-01T17:22:34.407Z,100625.97
2023-01-01T17:25:07.244Z,100634.97
2023-01-01T17:27:39.140Z,100627.16
2023-01-01T17:30:12.022Z,100626.03
2023-01-01T17:32:43.974Z,100626.03
2023-01-01T17:35:15.895Z,100631.63
2023-01-01T17:37:47.751Z,100624.25
2023-01-01T17:40:19.664Z,100627.34
2023-01-01T17:42:51.659Z,100590.31
2023-01-01T17:45:23.666Z,100622.81
2023-01-01T17:47:55.615Z,100626.34
2023-01-01T17:50:27.939Z,100587.66
2023-01-01T17:52:59.939Z,100607.81
2023-01-01T17:55:31.879Z,100633.59
2023-01-01T17:58:03.851Z,100587.78
2023-01-01T18:00:35.773Z,100632.59
2023-01-01T18:03:12.932Z,100648.34
2023-01-01T18:05:45.129Z,100618.78
2023-01-01T18:08:17.210Z,100631.03
2023-01-01T18:10:56.411Z,100646.47
2023-01-01T18:13:28.321Z,100648.69
2023-01-01T18:16:01.591Z,100660.38
2023-01-01T18:18:40.619Z,100672.22
2023-01-01T18:21:19.525Z,100638.16
2023-01-01T18:23:53.838Z,100615.44
2023-01-01T18:26:29.223Z,100678.50
2023-01-01T18:29:02.927Z,100633.22
2023-01-01T18:31:35.800Z,100678.75
2023-01-01T18:34:07.851Z,100673.94
2023-01-01T18:36:40.124Z,100679.28
2023-01-01T18:39:27.500Z,100685.41
2023-01-01T18:42:05.317Z,100685.41
2023-01-01T18:44:37.318Z,100641.66
2023-01-01T18:47:21.270Z,100688.44
2023-01-01T18:50:06.806Z,100689.06
2023-01-01T18:52:38.720Z,100645.09
2023-01-01T18:55:13.909Z,100684.19
2023-01-01T18:58:30.914Z,100696.47
2023-01-01T19:01:14.141Z,100695.06
2023-01-01T19:03:51.569Z,100649.47
2023-01-01T19:06:33.289Z,100702.81
2023-01-01T19:09:25.701Z,100727.78
2023-01-01T19:12:13.023Z,100712.59
2023-01-01T19:14:45.019Z,100699.38
2023-01-01T19:17:23.838Z,100730.59
2023-01-01T19:19:55.815Z,100726.00
2023-01-01T19:22:31.571Z,100728.41
2023-01-01T19:25:23.681Z,100726.94
2023-01-01T19:27:56.027Z,100740.47
2023-01-01T19:30:27.985Z,100755.97
2023-01-01T19:32:59.893Z,100742.34
2023-01-01T19:35:31.842Z,100752.84
2023-01-01T19:38:04.035Z,100754.50
2023-01-01T19:40:36.016Z,100770.00
2023-01-01T19:43:07.985Z,100754.91
2023-01-01T19:45:39.908Z,100706.94
2023-01-01T19:48:11.870Z,100732.44
2023-01-01T19:50:43.725Z,100742.56
2023-01-01T19:53:16.046Z,100749.59
2023-01-01T19:55:48.304Z,100776.34
2023-01-01T19:58:20.310Z,100751.78
2023-01-01T20:00:53.850Z,100766.47
2023-01-01T20:03:52.615Z,100775.59
2023-01-01T20:06:18.376Z,100770.09
2023-01-01T20:08:50.302Z,100751.47
2023-01-01T20:11:22.567Z,100791.44
2023-01-01T20:13:54.488Z,100785.69
2023-01-01T20:16:26.566Z,100778.41
2023-01-01T20:18:58.561Z,100794.53
2023-01-01T20:21:49.335Z,100796.38
2023-01-01T20:24:21.191Z,100792.16
2023-01-01T20:26:53.055Z,100789.41
2023-01-01T20:29:24.949Z,100800.34
2023-01-01T20:31:59.300Z,100782.63
2023-01-01T20:34:31.362Z,100765.97
2023-01-01T20:37:21.537Z,100797.81
2023-01-01T20:39:54.263Z,100798.63
2023-01-01T20:42:27.982Z,100779.28
2023-01-01T20:45:00.158Z,100797.25
2023-01-01T20:47:32.170Z,100812.66
2023-01-01T20:50:04.289Z,100810.34
2023-01-01T20:52:36.321Z,100787.03
2023-01-01T20:55:08.690Z,100794.44
2023-01-01T20:57:40.646Z,100807.53
2023-01-01T21:00:13.020Z,100797.31
2023-01-01T21:02:45.090Z,100796.03
2023-01-01T21:05:17.339Z,100795.63
2023-01-01T21:07:49.155Z,100794.06
2023-01-01T21:10:21.139Z,100817.59
2023-01-01T21:12:53.040Z,100801.13
2023-01-01T21:15:25.040Z,100771.03
2023-01-01T21:17:57.056Z,100815.22
2023-01-01T21:20:35.302Z,100785.28
2023-01-01T21:23:14.380Z,100834.88
2023-01-01T21:25:51.812Z,100837.75
2023-01-01T21:28:28.175Z,100822.00
2023-01-01T21:31:01.352Z,100813.19
2023-01-01T21:33:33.234Z,100821.75
2023-01-01T21:36:23.678Z,100843.44
2023-01-01T21:39:12.618Z,100828.59
2023-01-01T21:41:44.528Z,100831.84
2023-01-01T21:44:16.381Z,100849.28
2023-01-01T21:46:55.400Z,100799.91
2023-01-01T21:49:36.752Z,100846.59
2023-01-01T21:52:19.464Z,100822.31
2023-01-01T21:54:53.249Z,100846.53
2023-01-01T21:57:25.844Z,100834.75
2023-01-01T21:59:57.729Z,100840.44
2023-01-01T22:02:36.876Z,100859.88
2023-01-01T22:05:26.656Z,100867.84
2023-01-01T22:08:22.529Z,100868.75
2023-01-01T22:10:54.450Z,100869.88
2023-01-01T22:13:28.617Z,100864.91
2023-01-01T22:16:00.542Z,100850.50
2023-01-01T22:18:38.777Z,100839.56
2023-01-01T22:21:18.580Z,100870.81
2023-01-01T22:23:56.930Z,100849.31
2023-01-01T22:26:30.455Z,100851.00
2023-01-01T22:29:08.391Z,100874.34
2023-01-01T22:31:45.354Z,100824.84
2023-01-01T22:34:23.178Z,100855.63
2023-01-01T22:36:55.993Z,100825.88
2023-01-01T22:39:35.654Z,100848.94
2023-01-01T22:42:14.346Z,100852.94
2023-01-01T22:45:14.420Z,100863.22
2023-01-01T22:47:46.420Z,100819.84
2023-01-01T22:50:25.689Z,100855.09
2023-01-01T22:52:58.183Z,100854.13
2023-01-01T22:55:30.070Z,100851.81
2023-01-01T22:58:01.933Z,100850.88
2023-01-01T23:00:33.805Z,100822.59
2023-01-01T23:03:05.781Z,100842.41
2023-01-01T23:05:37.761Z,100826.56
2023-01-01T23:08:09.782Z,100846.22
2023-01-01T23:10:41.731Z,100842.75
2023-01-01T23:13:32.405Z,100843.44
2023-01-01T23:16:05.207Z,100847.69
2023-01-01T23:18:37.886Z,100852.72
2023-01-01T23:21:24.149Z,100853.50
2023-01-01T23:24:00.674Z,100839.56
2023-01-01T23:26:32.986Z,100850.94
2023-01-01T23:29:06.530Z,100861.09
2023-01-01T23:31:40.376Z,100853.69
2023-01-01T23:34:12.760Z,100846.66
2023-01-01T23:36:45.296Z,100848.50
2023-01-01T23:39:17.265Z,100846.44
2023-01-01T23:41:49.668Z,100846.81
2023-01-01T23:44:21.605Z,100828.47
2023-01-01T23:46:54.146Z,100847.53
2023-01-01T23:49:27.136Z,100861.91
2023-01-01T23:51:59.948Z,100847.69
2023-01-01T23:54:31.903Z,100848.06
2023-01-01T23:57:03.836Z,100838.19
2023-01-01T23:59:35.675Z,100846.88
